Time;durP1;ratioP1;P1;durP2;ratioP2;P2;SDS_P1;SDS_P2;PMS_P1;PMS_P2;Temp;Humidity;BMP_temperature;BMP_pressure;BME280_temperature;BME280_humidity;BME280_pressure;Samples;Min_cycle;Max_cycle;Signal;HPM_P1;HPM_P2
2021/12/25 00:01:20;;;;;;;0.30;0.30;;;0.90;99.90;;;;;;4970392;28;20311;-91
2021/12/25 00:03:47;;;;;;;0.97;0.97;;;0.90;99.90;;;;;;4984893;28;20211;-88
2021/12/25 00:06:13;;;;;;;0.20;0.20;;;0.90;99.90;;;;;;4986004;28;20295;-91
2021/12/25 00:08:39;;;;;;;1.37;0.53;;;0.90;99.90;;;;;;5006139;28;20238;-91
2021/12/25 00:11:07;;;;;;;0.50;0.50;;;0.90;99.90;;;;;;4973662;28;20215;-91
2021/12/25 00:13:34;;;;;;;0.30;0.30;;;0.80;99.90;;;;;;5006371;28;20246;-91
2021/12/25 00:16:00;;;;;;;0.30;0.30;;;0.80;99.90;;;;;;4973803;28;20212;-90
2021/12/25 00:18:26;;;;;;;0.87;0.87;;;0.80;99.90;;;;;;4989813;28;20219;-90
2021/12/25 00:20:52;;;;;;;0.30;0.30;;;0.70;99.90;;;;;;4974317;28;20747;-91
2021/12/25 00:23:18;;;;;;;0.20;0.20;;;0.70;99.90;;;;;;4990014;28;20269;-91
2021/12/25 00:25:49;;;;;;;0.20;0.20;;;0.70;99.90;;;;;;4974857;28;20184;-91
2021/12/25 00:36:19;;;;;;;0.70;0.70;;;0.60;99.90;;;;;;4990545;28;20216;-90
2021/12/25 00:38:47;;;;;;;0.30;0.30;;;0.60;99.90;;;;;;4986683;28;20235;-90
2021/12/25 00:41:15;;;;;;;0.20;0.20;;;0.60;99.90;;;;;;4957993;28;20234;-90
2021/12/25 00:43:41;;;;;;;0.40;0.40;;;0.50;99.90;;;;;;4990154;28;20196;-90
2021/12/25 00:46:07;;;;;;;0.30;0.30;;;0.60;99.90;;;;;;4973869;28;20689;-89
2021/12/25 00:48:33;;;;;;;0.20;0.20;;;0.50;99.90;;;;;;4990367;28;20216;-90
2021/12/25 00:51:00;;;;;;;0.30;0.30;;;0.50;99.90;;;;;;4990508;28;20212;-90
2021/12/25 00:53:25;;;;;;;0.40;0.40;;;0.50;99.90;;;;;;4990126;28;20696;-90
2021/12/25 00:55:52;;;;;;;0.20;0.20;;;0.40;99.90;;;;;;4974416;28;20192;-90
2021/12/25 00:58:18;;;;;;;1.67;1.57;;;0.40;99.90;;;;;;4991532;28;20196;-90
2021/12/25 01:00:44;;;;;;;0.30;0.30;;;0.40;99.90;;;;;;4974647;28;20224;-90
2021/12/25 01:03:10;;;;;;;0.20;0.20;;;0.40;99.90;;;;;;4990673;28;20226;-89
2021/12/25 01:05:37;;;;;;;0.20;0.20;;;0.40;99.90;;;;;;4974321;28;20585;-90
2021/12/25 01:08:03;;;;;;;0.40;0.40;;;0.30;99.90;;;;;;4975113;28;20677;-90
2021/12/25 01:10:29;;;;;;;0.13;0.13;;;0.30;99.90;;;;;;4992462;28;20191;-89
2021/12/25 01:13:10;;;;;;;0.20;0.20;;;0.20;99.90;;;;;;4991190;28;20700;-89
2021/12/25 01:18:42;;;;;;;0.40;0.40;;;0.20;99.90;;;;;;4991108;28;20651;-89
2021/12/25 01:31:28;;;;;;;0.20;0.20;;;0.10;99.90;;;;;;4991204;28;20180;-91
2021/12/25 01:36:55;;;;;;;0.10;0.10;;;0.00;99.90;;;;;;4977042;28;20208;-90
2021/12/25 01:49:47;;;;;;;0.50;0.50;;;-0.10;99.90;;;;;;4990695;28;20192;-91
2021/12/25 01:52:13;;;;;;;0.20;0.20;;;-0.10;99.90;;;;;;4973541;28;20241;-90
2021/12/25 01:54:38;;;;;;;0.10;0.10;;;-0.20;99.90;;;;;;4973099;28;20224;-89
2021/12/25 01:57:04;;;;;;;0.37;0.30;;;-0.20;99.90;;;;;;4955741;28;20227;-89
2021/12/25 01:59:30;;;;;;;0.50;0.50;;;-0.20;99.90;;;;;;4975238;28;20231;-92
2021/12/25 02:01:56;;;;;;;0.30;0.30;;;-0.30;99.90;;;;;;4973473;28;20211;-91
2021/12/25 02:04:22;;;;;;;0.40;0.40;;;-0.30;99.90;;;;;;4958449;28;20619;-91
2021/12/25 02:06:48;;;;;;;0.30;0.30;;;-0.30;99.90;;;;;;4990249;28;20224;-90
2021/12/25 02:09:13;;;;;;;0.30;0.30;;;-0.30;99.90;;;;;;4973305;28;20234;-91
2021/12/25 02:11:39;;;;;;;0.20;0.20;;;-0.40;99.90;;;;;;4989995;28;20234;-91
2021/12/25 02:14:05;;;;;;;0.30;0.30;;;-0.40;99.90;;;;;;4990548;28;20227;-92
2021/12/25 02:16:48;;;;;;;0.20;0.20;;;-0.40;99.90;;;;;;4959665;28;20203;-91
2021/12/25 02:19:22;;;;;;;0.20;0.20;;;-0.50;99.90;;;;;;4991019;28;20224;-91
2021/12/25 02:21:50;;;;;;;0.20;0.20;;;-0.50;99.90;;;;;;4974979;28;20219;-91
2021/12/25 02:24:16;;;;;;;0.20;0.20;;;-0.50;99.90;;;;;;4972489;28;20203;-91
2021/12/25 02:26:44;;;;;;;0.57;0.57;;;-0.60;99.90;;;;;;4972460;28;20700;-91
2021/12/25 02:29:13;;;;;;;0.27;0.27;;;-0.60;99.90;;;;;;4987985;28;20251;-90
2021/12/25 02:31:39;;;;;;;0.20;0.20;;;-0.50;99.90;;;;;;4989125;28;20219;-90
2021/12/25 02:34:05;;;;;;;0.30;0.30;;;-0.60;99.90;;;;;;4957136;28;20252;-90
2021/12/25 02:36:31;;;;;;;0.20;0.20;;;-0.60;99.90;;;;;;4988737;28;20302;-90
2021/12/25 02:38:57;;;;;;;0.20;0.20;;;-0.70;99.90;;;;;;4987837;28;20216;-90
2021/12/25 02:41:23;;;;;;;0.30;0.30;;;-0.60;99.90;;;;;;4970741;28;20310;-90
2021/12/25 02:43:49;;;;;;;0.20;0.20;;;-0.70;99.90;;;;;;4971743;28;20211;-90
2021/12/25 02:46:15;;;;;;;0.20;0.20;;;-0.70;99.90;;;;;;4971142;28;20266;-90
2021/12/25 02:48:42;;;;;;;0.20;0.20;;;-0.80;99.90;;;;;;4970866;28;20220;-91
2021/12/25 02:51:10;;;;;;;0.40;0.40;;;-0.80;99.90;;;;;;4986725;28;20215;-91
2021/12/25 02:53:37;;;;;;;0.27;0.27;;;-0.80;99.90;;;;;;4970709;28;20279;-91
2021/12/25 02:56:04;;;;;;;0.30;0.30;;;-0.80;99.90;;;;;;4971375;28;20192;-90
2021/12/25 02:58:29;;;;;;;0.20;0.20;;;-0.80;99.90;;;;;;4971719;28;20239;-90
2021/12/25 03:01:04;;;;;;;0.20;0.20;;;-0.90;99.90;;;;;;4955368;28;20242;-90
2021/12/25 03:03:30;;;;;;;0.20;0.20;;;-0.90;99.90;;;;;;4986055;28;20227;-91
2021/12/25 03:05:55;;;;;;;0.10;0.10;;;-0.90;99.90;;;;;;4955790;28;20223;-90
2021/12/25 03:08:21;;;;;;;0.17;0.17;;;-0.80;99.90;;;;;;4971218;28;20259;-90
2021/12/25 03:10:48;;;;;;;0.43;0.43;;;-0.80;99.90;;;;;;4987991;28;20203;-90
2021/12/25 03:15:46;;;;;;;0.10;0.10;;;-0.90;99.90;;;;;;4988083;28;20765;-90
2021/12/25 03:18:13;;;;;;;0.10;0.10;;;-0.90;99.90;;;;;;5002941;28;20208;-91
2021/12/25 03:20:44;;;;;;;0.20;0.20;;;-1.00;99.90;;;;;;5003451;28;20725;-91
2021/12/25 03:23:15;;;;;;;0.30;0.30;;;-1.00;99.90;;;;;;5001821;28;20324;-91
2021/12/25 03:25:42;;;;;;;0.30;0.30;;;-1.00;99.90;;;;;;4986822;28;20239;-90
2021/12/25 03:28:08;;;;;;;0.20;0.20;;;-1.00;99.90;;;;;;4970308;28;20223;-91
2021/12/25 03:30:38;;;;;;;0.20;0.20;;;-1.00;99.90;;;;;;4970996;28;20331;-90
2021/12/25 03:33:10;;;;;;;1.10;0.63;;;-1.10;99.90;;;;;;5003961;28;20701;-91
2021/12/25 03:35:36;;;;;;;1.03;0.90;;;-1.10;99.90;;;;;;4988336;28;20251;-91
2021/12/25 03:38:06;;;;;;;0.33;0.33;;;-1.00;99.90;;;;;;4970816;28;20196;-91
2021/12/25 03:40:33;;;;;;;0.20;0.20;;;-1.00;99.90;;;;;;4971954;28;20230;-90
2021/12/25 03:42:59;;;;;;;0.20;0.20;;;-1.00;99.90;;;;;;5002559;28;20254;-90
2021/12/25 03:45:28;;;;;;;0.20;0.20;;;-1.00;99.90;;;;;;4986862;28;20220;-91
2021/12/25 03:48:04;;;;;;;0.63;0.63;;;-1.00;99.90;;;;;;4986796;28;20704;-90
2021/12/25 03:58:43;;;;;;;0.20;0.20;;;-1.10;99.90;;;;;;4973414;28;20611;-90
2021/12/25 04:04:18;;;;;;;0.20;0.20;;;-1.20;99.90;;;;;;4960576;28;20638;-89
2021/12/25 04:06:51;;;;;;;0.20;0.20;;;-1.30;99.90;;;;;;4985955;28;20216;-89
2021/12/25 04:09:50;;;;;;;0.30;0.30;;;-1.30;99.90;;;;;;5002499;28;20232;-90
2021/12/25 04:12:12;;;;;;;0.10;0.10;;;-1.30;99.90;;;;;;4970964;28;20212;-90
2021/12/25 04:14:40;;;;;;;1.60;0.60;;;-1.30;99.90;;;;;;4986161;28;20243;-90
2021/12/25 04:17:06;;;;;;;0.20;0.20;;;-1.30;99.90;;;;;;4969411;28;20649;-90
2021/12/25 04:19:32;;;;;;;0.30;0.30;;;-1.30;99.90;;;;;;4986736;28;20200;-89
2021/12/25 04:22:05;;;;;;;0.20;0.20;;;-1.30;99.90;;;;;;4986364;28;21534;-90
2021/12/25 04:24:35;;;;;;;0.13;0.13;;;-1.30;99.90;;;;;;4970330;28;20215;-91
2021/12/25 04:27:02;;;;;;;0.10;0.10;;;-1.30;99.90;;;;;;4986327;28;20700;-90
2021/12/25 04:42:51;;;;;;;0.30;0.30;;;-1.50;99.90;;;;;;4972475;28;20228;-91
2021/12/25 05:04:28;;;;;;;0.10;0.10;;;-1.60;99.90;;;;;;4976942;28;20306;-89
2021/12/25 05:06:54;;;;;;;1.73;1.63;;;-1.60;99.90;;;;;;5005802;28;20220;-90
2021/12/25 05:09:20;;;;;;;0.20;0.20;;;-1.70;99.90;;;;;;4973402;28;20232;-91
2021/12/25 05:11:46;;;;;;;0.20;0.20;;;-1.70;99.90;;;;;;4956509;28;20211;-89
2021/12/25 05:14:12;;;;;;;0.20;0.20;;;-1.60;99.90;;;;;;4971500;28;20232;-89
2021/12/25 05:16:38;;;;;;;0.20;0.20;;;-1.60;99.90;;;;;;5005245;28;20196;-89
2021/12/25 05:19:04;;;;;;;0.30;0.30;;;-1.60;99.90;;;;;;4972327;28;20258;-90
2021/12/25 05:21:30;;;;;;;0.20;0.20;;;-1.60;99.90;;;;;;4956866;28;20216;-89
2021/12/25 05:23:58;;;;;;;0.10;0.10;;;-1.60;99.90;;;;;;4956271;28;20208;-89
2021/12/25 05:26:23;;;;;;;0.27;0.27;;;-1.70;99.90;;;;;;4988111;28;20216;-89
2021/12/25 05:28:58;;;;;;;0.10;0.10;;;-1.70;99.90;;;;;;4972792;28;20203;-90
2021/12/25 05:31:24;;;;;;;0.20;0.20;;;-1.60;99.90;;;;;;4958823;28;20237;-89
2021/12/25 05:33:50;;;;;;;0.20;0.20;;;-1.70;99.90;;;;;;4988074;28;20259;-91
2021/12/25 05:36:16;;;;;;;0.10;0.10;;;-1.80;99.90;;;;;;4988239;28;20247;-90
2021/12/25 05:38:42;;;;;;;0.20;0.20;;;-1.80;99.90;;;;;;4971201;28;20843;-89
2021/12/25 05:41:08;;;;;;;0.30;0.30;;;-1.80;99.90;;;;;;4956430;28;20248;-89
2021/12/25 05:43:34;;;;;;;0.10;0.10;;;-1.80;99.90;;;;;;4956372;28;20194;-89
2021/12/25 05:45:59;;;;;;;0.10;0.10;;;-1.70;99.90;;;;;;4987877;28;20730;-88
2021/12/25 05:48:25;;;;;;;0.10;0.10;;;-1.70;99.90;;;;;;4971021;28;20231;-90
2021/12/25 05:50:51;;;;;;;0.20;0.20;;;-1.70;99.90;;;;;;4972300;28;20238;-89
2021/12/25 05:53:17;;;;;;;0.10;0.10;;;-1.80;99.90;;;;;;4956032;28;20586;-90
2021/12/25 05:55:42;;;;;;;0.20;0.20;;;-1.80;99.90;;;;;;4972141;28;20188;-88
2021/12/25 05:58:09;;;;;;;0.20;0.20;;;-1.80;99.90;;;;;;4956103;28;20216;-89
2021/12/25 06:00:39;;;;;;;0.20;0.20;;;-1.90;99.90;;;;;;4971854;28;20349;-89
2021/12/25 06:03:05;;;;;;;0.37;0.37;;;-1.80;99.90;;;;;;4988141;28;20696;-90
2021/12/25 06:05:31;;;;;;;0.30;0.30;;;-1.80;99.90;;;;;;4970780;28;20294;-91
2021/12/25 06:07:57;;;;;;;0.10;0.10;;;-1.80;99.90;;;;;;4971762;28;20813;-90
2021/12/25 06:10:23;;;;;;;0.13;0.13;;;-1.90;99.90;;;;;;4972451;28;20184;-90
2021/12/25 06:12:53;;;;;;;0.30;0.30;;;-1.90;99.90;;;;;;4971852;28;20212;-89
2021/12/25 06:15:19;;;;;;;0.13;0.13;;;-1.90;99.90;;;;;;4986707;28;20512;-90
2021/12/25 06:17:46;;;;;;;0.27;0.27;;;-2.00;99.90;;;;;;4955627;28;20239;-89
2021/12/25 06:20:12;;;;;;;0.20;0.20;;;-2.00;99.90;;;;;;4971144;28;20302;-89
2021/12/25 06:22:38;;;;;;;0.20;0.20;;;-2.00;99.90;;;;;;4955483;28;20276;-90
2021/12/25 06:25:05;;;;;;;0.20;0.20;;;-2.10;99.90;;;;;;4971163;28;20215;-89
2021/12/25 06:27:31;;;;;;;0.20;0.20;;;-2.10;99.90;;;;;;4987176;28;21229;-90
2021/12/25 06:29:57;;;;;;;0.27;0.27;;;-2.10;99.90;;;;;;4987274;28;20250;-89
2021/12/25 06:32:23;;;;;;;0.20;0.20;;;-2.10;99.90;;;;;;4971539;28;20227;-89
2021/12/25 06:34:49;;;;;;;0.10;0.10;;;-2.20;99.90;;;;;;5005711;28;20199;-90
2021/12/25 06:37:16;;;;;;;0.20;0.20;;;-2.20;99.90;;;;;;4989703;28;20208;-89
2021/12/25 06:39:42;;;;;;;0.20;0.20;;;-2.20;99.90;;;;;;4956692;28;20220;-90
2021/12/25 06:42:09;;;;;;;0.20;0.20;;;-2.20;99.90;;;;;;4972036;28;20227;-90
2021/12/25 06:44:35;;;;;;;0.53;0.53;;;-2.20;99.90;;;;;;4970782;28;20692;-90
2021/12/25 06:47:02;;;;;;;0.30;0.30;;;-2.30;99.90;;;;;;4970418;28;20254;-90
2021/12/25 06:49:28;;;;;;;0.30;0.30;;;-2.30;99.90;;;;;;4993984;28;20205;-90
2021/12/25 06:51:54;;;;;;;0.13;0.13;;;-2.30;99.90;;;;;;4946087;28;20223;-90
2021/12/25 06:54:20;;;;;;;0.20;0.20;;;-2.40;99.90;;;;;;4977769;28;20239;-90
2021/12/25 06:56:48;;;;;;;0.30;0.30;;;-2.40;99.90;;;;;;4960981;28;20234;-90
2021/12/25 06:59:15;;;;;;;0.10;0.10;;;-2.40;99.90;;;;;;4961870;28;20224;-89
2021/12/25 07:01:41;;;;;;;0.20;0.20;;;-2.40;99.90;;;;;;4962462;28;20191;-90
2021/12/25 07:04:08;;;;;;;0.20;0.20;;;-2.50;99.90;;;;;;4977691;28;20274;-90
2021/12/25 07:06:35;;;;;;;0.20;0.20;;;-2.50;99.90;;;;;;4992494;28;20216;-89
2021/12/25 07:09:03;;;;;;;0.20;0.20;;;-2.60;99.90;;;;;;4978140;28;20247;-88
2021/12/25 07:11:29;;;;;;;0.40;0.40;;;-2.50;99.90;;;;;;4979093;28;20228;-89
2021/12/25 07:13:56;;;;;;;0.20;0.20;;;-2.60;99.90;;;;;;4971037;28;20286;-89
2021/12/25 07:16:22;;;;;;;0.20;0.20;;;-2.50;99.90;;;;;;4961708;28;21282;-89
2021/12/25 07:18:47;;;;;;;0.10;0.10;;;-2.50;99.90;;;;;;4978062;28;20222;-88
2021/12/25 07:21:13;;;;;;;0.17;0.17;;;-2.60;99.90;;;;;;4946112;28;20212;-90
2021/12/25 07:23:39;;;;;;;0.20;0.20;;;-2.60;99.90;;;;;;4976893;28;20257;-90
2021/12/25 07:26:05;;;;;;;0.10;0.10;;;-2.60;99.90;;;;;;4959669;28;20598;-90
2021/12/25 07:28:31;;;;;;;0.20;0.20;;;-2.70;99.90;;;;;;4977417;28;20624;-90
2021/12/25 07:31:00;;;;;;;0.20;0.20;;;-2.70;99.90;;;;;;4974177;28;20208;-91
2021/12/25 07:33:30;;;;;;;0.20;0.20;;;-2.70;99.90;;;;;;4960434;28;20200;-89
2021/12/25 07:35:56;;;;;;;0.10;0.10;;;-2.70;99.90;;;;;;4992102;28;20240;-89
2021/12/25 07:38:23;;;;;;;0.10;0.10;;;-2.60;99.90;;;;;;4952252;28;20220;-90
2021/12/25 07:40:49;;;;;;;0.20;0.20;;;-2.60;99.90;;;;;;4975221;28;20199;-89
2021/12/25 07:43:15;;;;;;;0.30;0.30;;;-2.60;99.90;;;;;;4971211;28;20212;-90
2021/12/25 07:45:41;;;;;;;0.10;0.10;;;-2.50;99.90;;;;;;4968370;28;20286;-89
2021/12/25 07:48:07;;;;;;;0.10;0.10;;;-2.50;99.90;;;;;;4969839;28;20232;-90
2021/12/25 07:50:36;;;;;;;0.13;0.13;;;-2.40;99.90;;;;;;4969226;28;21030;-90
2021/12/25 07:53:02;;;;;;;0.20;0.20;;;-2.50;99.90;;;;;;4985708;28;20692;-89
2021/12/25 07:55:30;;;;;;;0.30;0.30;;;-2.50;99.90;;;;;;4970389;28;20196;-90
2021/12/25 07:57:57;;;;;;;0.10;0.10;;;-2.40;99.90;;;;;;4969928;28;20216;-89
2021/12/25 08:00:23;;;;;;;0.17;0.17;;;-2.40;99.90;;;;;;4968210;28;20779;-89
2021/12/25 08:02:48;;;;;;;0.20;0.20;;;-2.50;99.90;;;;;;4944587;28;20303;-90
2021/12/25 08:05:14;;;;;;;0.20;0.20;;;-2.50;99.90;;;;;;4944475;28;20220;-88
2021/12/25 08:07:41;;;;;;;0.20;0.20;;;-2.50;99.90;;;;;;4977129;28;20234;-88
2021/12/25 08:10:14;;;;;;;0.10;0.10;;;-2.50;99.90;;;;;;4974627;28;20734;-88
2021/12/25 08:12:49;;;;;;;0.30;0.30;;;-2.60;99.90;;;;;;4991987;28;20627;-89
2021/12/25 08:15:17;;;;;;;0.20;0.20;;;-2.50;99.90;;;;;;4976525;28;20712;-90
2021/12/25 08:17:44;;;;;;;0.10;0.10;;;-2.60;99.90;;;;;;4975778;28;20700;-89
2021/12/25 08:20:12;;;;;;;0.13;0.13;;;-2.50;99.90;;;;;;4983825;28;20250;-90
2021/12/25 08:22:39;;;;;;;0.20;0.20;;;-2.50;99.90;;;;;;4975049;28;20207;-91
2021/12/25 08:25:05;;;;;;;0.20;0.20;;;-2.40;99.90;;;;;;4975814;28;20200;-91
2021/12/25 08:27:31;;;;;;;0.30;0.30;;;-2.40;99.90;;;;;;4959577;28;20204;-90
2021/12/25 08:29:58;;;;;;;0.20;0.20;;;-2.40;99.90;;;;;;4963986;28;20227;-93
2021/12/25 08:32:24;;;;;;;0.10;0.10;;;-2.40;99.90;;;;;;4963968;28;20213;-94
2021/12/25 08:34:50;;;;;;;0.20;0.20;;;-2.30;99.90;;;;;;4963823;28;20183;-89
2021/12/25 08:37:19;;;;;;;0.20;0.20;;;-2.30;99.90;;;;;;4979117;28;20307;-89
2021/12/25 08:39:45;;;;;;;0.20;0.20;;;-2.20;99.90;;;;;;4964257;28;20255;-92
2021/12/25 08:42:10;;;;;;;0.30;0.30;;;-2.20;99.90;;;;;;4965345;28;20259;-89
2021/12/25 08:47:37;;;;;;;0.10;0.10;;;-2.20;99.90;;;;;;4975251;28;20708;-88
2021/12/25 08:50:08;;;;;;;0.20;0.20;;;-2.20;99.90;;;;;;4979652;28;20250;-91
2021/12/25 08:52:34;;;;;;;0.20;0.20;;;-2.10;99.90;;;;;;4987606;28;20571;-90
2021/12/25 08:55:00;;;;;;;0.20;0.20;;;-2.10;99.90;;;;;;4977081;28;20257;-90
2021/12/25 08:57:25;;;;;;;0.10;0.10;;;-2.10;99.90;;;;;;4961906;28;20306;-90
2021/12/25 08:59:54;;;;;;;0.30;0.30;;;-2.00;99.90;;;;;;4948057;28;20217;-90
2021/12/25 09:02:21;;;;;;;0.30;0.30;;;-2.00;99.90;;;;;;4946779;28;20227;-90
2021/12/25 09:04:49;;;;;;;0.40;0.40;;;-2.00;99.90;;;;;;4962898;28;20207;-90
2021/12/25 09:07:15;;;;;;;0.20;0.20;;;-1.90;99.90;;;;;;4977706;28;20213;-90
2021/12/25 09:09:41;;;;;;;0.20;0.20;;;-1.90;99.90;;;;;;4977167;28;20278;-90
2021/12/25 09:12:09;;;;;;;0.30;0.30;;;-1.90;99.90;;;;;;4962448;28;20285;-90
2021/12/25 09:14:36;;;;;;;0.23;0.23;;;-1.80;99.90;;;;;;4979342;28;20754;-89
2021/12/25 09:17:03;;;;;;;0.30;0.30;;;-1.80;99.90;;;;;;4963776;28;20208;-90
2021/12/25 09:19:29;;;;;;;0.20;0.20;;;-1.70;99.90;;;;;;4961582;28;20340;-91
2021/12/25 09:21:55;;;;;;;0.97;0.87;;;-1.70;99.90;;;;;;4946706;28;20303;-90
2021/12/25 09:24:21;;;;;;;0.20;0.20;;;-1.70;99.90;;;;;;4961783;28;20223;-91
2021/12/25 09:26:47;;;;;;;0.20;0.20;;;-1.70;99.90;;;;;;4961089;28;20223;-90
2021/12/25 09:29:13;;;;;;;0.30;0.30;;;-1.60;99.90;;;;;;4976744;28;20374;-91
2021/12/25 09:31:41;;;;;;;0.53;0.53;;;-1.60;99.90;;;;;;4962047;28;20275;-90
2021/12/25 09:34:07;;;;;;;0.20;0.20;;;-1.50;99.90;;;;;;4977254;28;20217;-91
2021/12/25 09:36:34;;;;;;;0.20;0.20;;;-1.50;99.90;;;;;;4977165;28;20771;-90
2021/12/25 09:39:03;;;;;;;0.30;0.30;;;-1.50;99.90;;;;;;4952840;28;20212;-90
2021/12/25 09:41:29;;;;;;;0.20;0.20;;;-1.50;99.90;;;;;;4959588;28;20275;-90
2021/12/25 09:43:55;;;;;;;0.10;0.10;;;-1.40;99.90;;;;;;4969915;28;20203;-89
2021/12/25 09:46:21;;;;;;;0.10;0.10;;;-1.40;99.90;;;;;;4979617;28;20200;-90
2021/12/25 09:48:50;;;;;;;0.30;0.30;;;-1.40;99.90;;;;;;4953363;28;20310;-90
2021/12/25 09:51:16;;;;;;;0.10;0.10;;;-1.30;99.90;;;;;;4962257;28;20615;-90
2021/12/25 09:53:42;;;;;;;0.23;0.23;;;-1.40;99.90;;;;;;4960039;28;20761;-93
2021/12/25 09:56:08;;;;;;;0.20;0.20;;;-1.30;99.90;;;;;;4961914;28;20204;-89
2021/12/25 09:58:34;;;;;;;0.40;0.40;;;-1.30;99.90;;;;;;4962679;28;20191;-90
2021/12/25 10:00:59;;;;;;;0.30;0.30;;;-1.20;99.90;;;;;;4962431;28;20220;-91
2021/12/25 10:03:42;;;;;;;0.30;0.30;;;-1.20;99.90;;;;;;4978861;28;20212;-91
2021/12/25 10:06:07;;;;;;;0.50;0.50;;;-1.10;99.90;;;;;;4976931;28;20302;-90
2021/12/25 10:08:37;;;;;;;0.20;0.20;;;-1.20;99.90;;;;;;4945048;28;20316;-91
2021/12/25 10:11:04;;;;;;;0.20;0.20;;;-1.10;99.90;;;;;;4969018;28;20196;-90
2021/12/25 10:13:40;;;;;;;0.20;0.20;;;-1.10;99.90;;;;;;4960533;28;20248;-91
2021/12/25 10:16:27;;;;;;;0.20;0.20;;;-1.10;99.90;;;;;;4991984;28;20270;-90
2021/12/25 10:18:55;;;;;;;0.20;0.20;;;-1.10;99.90;;;;;;4994206;28;20217;-90
2021/12/25 10:21:24;;;;;;;0.20;0.20;;;-1.10;99.90;;;;;;4993437;28;20295;-91
2021/12/25 10:24:05;;;;;;;0.40;0.40;;;-1.10;99.90;;;;;;4978371;28;20216;-91
2021/12/25 10:26:32;;;;;;;0.27;0.27;;;-1.00;99.90;;;;;;4986081;28;21200;-91
2021/12/25 10:28:58;;;;;;;0.40;0.40;;;-1.00;99.90;;;;;;4977247;28;20231;-90
2021/12/25 10:31:33;;;;;;;0.53;0.40;;;-1.00;99.90;;;;;;4946038;28;20280;-91
2021/12/25 10:33:58;;;;;;;0.30;0.30;;;-0.90;99.90;;;;;;4976409;28;20829;-90
2021/12/25 10:36:35;;;;;;;0.20;0.20;;;-0.90;99.90;;;;;;4969616;28;20246;-91
2021/12/25 10:39:03;;;;;;;0.20;0.20;;;-0.80;99.90;;;;;;4993037;28;20708;-91
2021/12/25 10:41:29;;;;;;;0.23;0.23;;;-0.80;99.90;;;;;;4992463;28;20248;-92
2021/12/25 10:44:31;;;;;;;0.20;0.20;;;-0.80;99.90;;;;;;4977496;28;20185;-91
2021/12/25 10:47:00;;;;;;;0.20;0.20;;;-0.80;99.90;;;;;;4977558;28;20266;-89
2021/12/25 10:49:33;;;;;;;0.20;0.20;;;-0.70;99.90;;;;;;4993917;28;20549;-90
2021/12/25 10:52:39;;;;;;;0.23;0.23;;;-0.70;99.90;;;;;;4992606;28;20223;-90
2021/12/25 10:55:15;;;;;;;0.20;0.20;;;-0.70;99.90;;;;;;4973740;28;20226;-91
2021/12/25 10:57:44;;;;;;;0.20;0.20;;;-0.60;99.90;;;;;;4987750;28;20215;-87
2021/12/25 11:00:14;;;;;;;0.30;0.30;;;-0.60;99.90;;;;;;5004080;28;20212;-88
2021/12/25 11:02:44;;;;;;;0.50;0.50;;;-0.60;99.90;;;;;;5003570;28;20216;-88
2021/12/25 11:05:24;;;;;;;0.93;0.87;;;-0.60;99.90;;;;;;5003580;28;22568;-88
2021/12/25 11:08:10;;;;;;;0.40;0.40;;;-0.60;99.90;;;;;;5003085;28;20657;-89
2021/12/25 11:10:55;;;;;;;0.40;0.40;;;-0.50;99.90;;;;;;4987043;28;20180;-91
2021/12/25 11:13:35;;;;;;;0.30;0.30;;;-0.50;99.90;;;;;;4987204;28;20243;-88
2021/12/25 11:16:21;;;;;;;0.40;0.40;;;-0.50;99.90;;;;;;4987036;28;20219;-87
2021/12/25 11:19:27;;;;;;;0.30;0.30;;;-0.50;99.90;;;;;;4987310;28;20231;-88
2021/12/25 11:21:54;;;;;;;0.30;0.30;;;-0.50;99.90;;;;;;4988223;28;20267;-90
2021/12/25 11:24:21;;;;;;;0.27;0.27;;;-0.50;99.90;;;;;;4986856;28;20781;-90
2021/12/25 11:26:50;;;;;;;0.40;0.40;;;-0.60;99.90;;;;;;4986529;28;20303;-87
2021/12/25 11:29:19;;;;;;;0.40;0.40;;;-0.50;99.90;;;;;;4985987;28;20599;-89
2021/12/25 11:31:48;;;;;;;0.20;0.20;;;-0.50;99.90;;;;;;4985767;28;20188;-89
2021/12/25 11:34:14;;;;;;;0.30;0.30;;;-0.50;99.90;;;;;;4986390;28;20258;-88
2021/12/25 11:36:50;;;;;;;0.30;0.30;;;-0.40;99.90;;;;;;4986299;28;20224;-88
2021/12/25 11:39:19;;;;;;;0.23;0.23;;;-0.50;99.90;;;;;;5002499;28;20223;-88
2021/12/25 11:41:47;;;;;;;0.30;0.30;;;-0.40;99.90;;;;;;4986116;28;20532;-88
2021/12/25 11:44:38;;;;;;;0.10;0.10;;;-0.30;99.90;;;;;;4970407;28;20215;-91
2021/12/25 11:47:06;;;;;;;0.30;0.30;;;-0.30;99.90;;;;;;5002581;28;20203;-89
2021/12/25 11:49:32;;;;;;;0.20;0.20;;;-0.20;99.90;;;;;;4986941;28;20684;-89
2021/12/25 11:52:18;;;;;;;0.30;0.30;;;-0.30;99.90;;;;;;4969824;28;20216;-89
2021/12/25 11:57:59;;;;;;;0.43;0.43;;;-0.30;99.90;;;;;;4986101;28;20285;-88
2021/12/25 12:00:37;;;;;;;0.27;0.27;;;-0.20;99.90;;;;;;4987114;28;20681;-87
2021/12/25 12:03:04;;;;;;;0.40;0.40;;;-0.30;99.90;;;;;;5004253;28;20299;-90
2021/12/25 12:05:33;;;;;;;0.20;0.20;;;-0.20;99.90;;;;;;4974154;28;20231;-89
2021/12/25 12:07:58;;;;;;;0.40;0.40;;;-0.20;99.90;;;;;;4989758;28;20184;-88
2021/12/25 12:10:46;;;;;;;0.10;0.10;;;-0.20;99.90;;;;;;4991038;28;20214;-89
2021/12/25 12:13:28;;;;;;;0.20;0.20;;;-0.20;99.90;;;;;;5006652;28;20212;-88
2021/12/25 12:16:02;;;;;;;1.03;0.70;;;-0.20;99.90;;;;;;4990202;28;20212;-88
2021/12/25 12:18:31;;;;;;;0.20;0.20;;;-0.20;99.90;;;;;;4990332;28;20215;-88
2021/12/25 12:21:09;;;;;;;0.20;0.20;;;-0.10;99.90;;;;;;4990137;28;20223;-88
2021/12/25 12:26:48;;;;;;;0.30;0.30;;;-0.10;99.90;;;;;;4990732;28;20722;-88
2021/12/25 12:29:34;;;;;;;0.30;0.30;;;-0.10;99.90;;;;;;4989884;28;20228;-88
2021/12/25 12:32:00;;;;;;;0.40;0.40;;;-0.10;99.90;;;;;;4989579;28;20248;-90
2021/12/25 12:34:29;;;;;;;0.40;0.40;;;-0.20;99.90;;;;;;4974550;28;21770;-88
2021/12/25 12:37:13;;;;;;;0.20;0.20;;;-0.20;99.90;;;;;;5006436;28;20220;-88
2021/12/25 12:39:40;;;;;;;11.10;0.93;;;-0.10;99.90;;;;;;5005596;28;20435;-88
2021/12/25 12:42:09;;;;;;;0.27;0.27;;;-0.10;99.90;;;;;;4988623;28;20231;-88
2021/12/25 12:44:36;;;;;;;0.10;0.10;;;0.20;99.90;;;;;;4958439;28;20262;-88
2021/12/25 12:47:11;;;;;;;0.27;0.27;;;0.90;99.90;;;;;;4990623;28;20199;-88
2021/12/25 12:49:46;;;;;;;0.30;0.30;;;1.50;99.90;;;;;;4990829;28;20207;-88
2021/12/25 12:52:14;;;;;;;0.30;0.30;;;1.90;99.90;;;;;;4990574;28;20216;-87
2021/12/25 12:55:04;;;;;;;0.30;0.30;;;1.50;99.90;;;;;;5005853;28;20208;-87
2021/12/25 12:57:42;;;;;;;0.30;0.30;;;1.20;99.90;;;;;;4988702;28;20577;-88
2021/12/25 13:00:17;;;;;;;0.30;0.30;;;0.50;99.90;;;;;;4989534;28;20208;-87
2021/12/25 13:02:52;;;;;;;0.50;0.50;;;0.30;99.90;;;;;;4988741;28;20226;-88
2021/12/25 13:05:23;;;;;;;0.50;0.50;;;0.30;99.90;;;;;;4989781;28;20559;-87
2021/12/25 13:07:52;;;;;;;0.50;0.50;;;0.20;99.90;;;;;;4989122;28;20640;-87
2021/12/25 13:10:35;;;;;;;0.30;0.30;;;0.10;99.90;;;;;;4989347;28;20220;-87
2021/12/25 13:13:35;;;;;;;0.30;0.30;;;0.10;99.90;;;;;;4987823;28;20215;-88
2021/12/25 13:16:23;;;;;;;0.30;0.30;;;-0.10;99.90;;;;;;5004314;28;20627;-87
2021/12/25 13:18:53;;;;;;;0.37;0.37;;;0.00;99.90;;;;;;4972744;28;20708;-89
2021/12/25 13:21:22;;;;;;;0.20;0.20;;;0.00;99.90;;;;;;5004924;28;20318;-88
2021/12/25 13:23:53;;;;;;;1.13;1.13;;;0.00;99.90;;;;;;5004097;28;20224;-91
2021/12/25 13:26:22;;;;;;;0.30;0.30;;;-0.10;99.90;;;;;;4972499;28;20286;-87
2021/12/25 13:28:50;;;;;;;0.30;0.30;;;-0.10;99.90;;;;;;4988236;28;20227;-88
2021/12/25 13:31:20;;;;;;;0.30;0.30;;;-0.20;99.90;;;;;;4972259;28;20216;-87
2021/12/25 13:34:02;;;;;;;0.20;0.20;;;-0.20;99.90;;;;;;4988052;28;20203;-89
2021/12/25 13:36:33;;;;;;;0.20;0.20;;;-0.20;99.90;;;;;;4987907;28;20258;-89
2021/12/25 13:39:07;;;;;;;0.20;0.20;;;-0.20;99.90;;;;;;4986830;28;20208;-91
2021/12/25 13:41:32;;;;;;;0.20;0.20;;;-0.20;99.90;;;;;;4986988;28;20215;-88
2021/12/25 13:44:04;;;;;;;0.30;0.30;;;-0.10;99.90;;;;;;4988782;28;20222;-89
2021/12/25 13:46:54;;;;;;;0.30;0.30;;;-0.20;99.90;;;;;;5005319;28;20598;-88
2021/12/25 13:49:41;;;;;;;1.73;1.60;;;-0.20;99.90;;;;;;5004380;28;20314;-90
2021/12/25 13:52:26;;;;;;;0.20;0.20;;;-0.30;99.90;;;;;;4988265;28;20303;-88
2021/12/25 13:54:55;;;;;;;0.20;0.20;;;-0.40;99.90;;;;;;4987474;28;20247;-87
2021/12/25 13:57:23;;;;;;;0.30;0.30;;;-0.30;99.90;;;;;;4987724;28;20274;-87
2021/12/25 14:00:01;;;;;;;0.30;0.30;;;-0.30;99.90;;;;;;4971766;28;20236;-87
2021/12/25 14:02:29;;;;;;;0.40;0.40;;;-0.30;99.90;;;;;;4981306;28;20204;-88
2021/12/25 14:04:56;;;;;;;0.30;0.30;;;-0.20;99.90;;;;;;4987045;28;20250;-88
2021/12/25 14:07:27;;;;;;;0.20;0.20;;;-0.20;99.90;;;;;;4987738;28;20192;-89
2021/12/25 14:09:59;;;;;;;0.40;0.40;;;-0.30;99.90;;;;;;4986920;28;20231;-89
2021/12/25 14:12:26;;;;;;;0.40;0.40;;;-0.30;99.90;;;;;;4986695;28;20220;-89
2021/12/25 14:14:53;;;;;;;0.20;0.20;;;-0.40;99.90;;;;;;4954858;28;20239;-90
2021/12/25 14:17:20;;;;;;;0.60;0.60;;;-0.40;99.90;;;;;;4987173;28;20246;-89
2021/12/25 14:19:46;;;;;;;0.20;0.20;;;-0.50;99.90;;;;;;4987542;28;20285;-89
2021/12/25 14:22:12;;;;;;;0.30;0.30;;;-0.40;99.90;;;;;;4987279;28;20306;-90
2021/12/25 14:24:41;;;;;;;0.40;0.40;;;-0.50;99.90;;;;;;4971125;28;20231;-88
2021/12/25 14:27:09;;;;;;;0.30;0.30;;;-0.50;99.90;;;;;;4987613;28;20723;-88
2021/12/25 14:29:35;;;;;;;1.33;1.33;;;-0.50;99.90;;;;;;4986776;28;20227;-90